createdAt,value
2023-09-13T00:50:16.728Z,5.63
2023-09-13T01:12:09.212Z,5.65
2023-09-13T01:21:52.121Z,5.10
2023-09-13T01:31:32.593Z,5.35
2023-09-13T01:52:01.806Z,4.95
2023-09-13T02:01:42.237Z,5.57
2023-09-13T02:11:23.062Z,5.77
2023-09-13T02:56:44.822Z,6.93
2023-09-13T03:06:24.960Z,5.43
2023-09-13T03:25:52.468Z,5.40
2023-09-13T03:28:56.179Z,6.33
2023-09-13T03:31:58.839Z,6.18
2023-09-13T03:35:01.062Z,6.25
2023-09-13T03:38:03.214Z,5.60
2023-09-13T03:41:06.478Z,6.35
2023-09-13T03:44:08.548Z,5.83
2023-09-13T03:47:10.696Z,6.82
2023-09-13T03:50:12.861Z,6.60
2023-09-13T03:53:14.974Z,6.03
2023-09-13T03:56:17.083Z,6.28
2023-09-13T03:59:18.938Z,6.30
2023-09-13T04:02:21.001Z,6.20
2023-09-13T04:05:23.089Z,6.72
2023-09-13T04:08:24.953Z,6.28
2023-09-13T04:11:29.898Z,6.25
2023-09-13T04:14:31.868Z,6.47
2023-09-13T04:17:34.149Z,6.50
2023-09-13T04:20:37.300Z,6.97
2023-09-13T04:23:39.202Z,7.35
2023-09-13T04:26:41.334Z,7.38
2023-09-13T04:29:44.401Z,7.00
2023-09-13T04:39:25.101Z,6.75
2023-09-13T04:43:31.905Z,7.55
2023-09-13T04:53:12.007Z,7.17
2023-09-13T05:50:40.026Z,7.25
2023-09-13T06:00:20.309Z,7.50
2023-09-13T06:09:17.143Z,8.00
2023-09-13T06:13:22.951Z,8.90
2023-09-13T06:16:56.719Z,7.75
2023-09-13T06:21:05.138Z,8.38
2023-09-13T07:30:24.494Z,6.10
2023-09-13T07:52:22.925Z,4.20
2023-09-13T08:02:06.990Z,5.03
2023-09-13T08:05:41.134Z,5.30
2023-09-13T08:14:49.002Z,5.18
2023-09-13T08:25:00.842Z,4.50
2023-09-13T08:34:40.822Z,4.30
2023-09-13T09:15:26.909Z,4.17
2023-09-13T09:36:27.426Z,3.93
2023-09-13T10:12:28.825Z,4.30
2023-09-13T10:16:03.832Z,3.38
2023-09-13T10:25:47.498Z,3.67
2023-09-13T11:06:35.672Z,2.60
2023-09-13T11:32:37.637Z,3.47
2023-09-13T12:43:44.702Z,2.87
2023-09-13T13:12:14.794Z,2.97
2023-09-13T13:22:59.693Z,2.75
2023-09-13T13:27:37.847Z,2.67
2023-09-13T13:37:19.109Z,2.93
2023-09-13T14:10:24.045Z,3.22
2023-09-13T14:14:30.124Z,3.40
2023-09-13T14:29:51.017Z,3.87
2023-09-13T14:51:10.882Z,3.40
2023-09-13T14:54:12.879Z,3.60
2023-09-13T14:57:15.572Z,3.00
2023-09-13T15:00:18.249Z,3.22
2023-09-13T15:03:20.410Z,3.15
2023-09-13T15:06:22.539Z,3.78
2023-09-13T15:09:24.618Z,2.70
2023-09-13T15:12:26.579Z,3.45
2023-09-13T15:15:29.171Z,3.08
2023-09-13T15:18:35.518Z,2.90
2023-09-13T15:21:38.097Z,2.70
2023-09-13T15:24:40.266Z,2.77
2023-09-13T15:27:42.295Z,2.88
2023-09-13T15:30:44.266Z,3.03
2023-09-13T15:33:46.324Z,2.85
2023-09-13T15:36:48.378Z,2.88
2023-09-13T15:39:50.389Z,3.00
2023-09-13T15:42:52.625Z,2.83
2023-09-13T15:45:56.532Z,3.40
2023-09-13T15:48:58.684Z,2.72
2023-09-13T15:52:01.109Z,3.25
2023-09-13T15:55:04.375Z,3.00
2023-09-13T15:58:06.297Z,4.05
2023-09-13T16:01:08.369Z,4.70
2023-09-13T16:04:10.928Z,5.28
2023-09-13T16:07:12.882Z,5.55
2023-09-13T16:10:14.866Z,4.07
2023-09-13T16:13:19.299Z,3.85
2023-09-13T16:16:21.617Z,3.20
2023-09-13T16:19:23.960Z,3.50
2023-09-13T16:22:25.878Z,4.20
2023-09-13T16:25:27.811Z,4.07
2023-09-13T16:28:29.646Z,3.22
2023-09-13T16:31:31.541Z,3.88
2023-09-13T16:34:33.496Z,3.40
2023-09-13T16:37:35.334Z,3.83
2023-09-13T16:40:37.197Z,3.40
2023-09-13T16:43:39.014Z,3.65
2023-09-13T16:46:42.048Z,4.63
2023-09-13T16:49:44.059Z,4.05
2023-09-13T16:52:45.974Z,3.35
2023-09-13T16:55:47.862Z,3.80
2023-09-13T17:02:54.291Z,3.78
2023-09-13T17:05:57.015Z,4.70
2023-09-13T17:08:58.880Z,3.92
2023-09-13T17:12:00.955Z,3.90
2023-09-13T17:15:05.273Z,3.72
2023-09-13T17:21:20.412Z,4.72
2023-09-13T17:24:22.431Z,5.03
2023-09-13T17:27:24.403Z,4.17
2023-09-13T17:30:26.811Z,4.25
2023-09-13T17:37:30.128Z,3.30
2023-09-13T17:40:32.152Z,3.63
2023-09-13T17:43:34.004Z,3.40
2023-09-13T17:46:36.109Z,3.55
2023-09-13T17:49:38.018Z,3.20
2023-09-13T17:52:39.892Z,3.13
2023-09-13T17:55:41.859Z,3.13
2023-09-13T17:58:43.953Z,2.83
2023-09-13T18:01:47.009Z,3.22
2023-09-13T18:04:49.532Z,3.70
2023-09-13T18:07:58.814Z,3.33
2023-09-13T18:11:04.214Z,3.30
2023-09-13T18:14:07.418Z,3.03
2023-09-13T18:17:09.278Z,3.17
2023-09-13T18:20:13.827Z,3.92
2023-09-13T18:23:16.150Z,3.10
2023-09-13T18:26:20.656Z,3.08
2023-09-13T18:29:22.636Z,3.17
2023-09-13T18:32:24.577Z,2.80
2023-09-13T18:35:26.488Z,3.22
2023-09-13T18:38:28.577Z,4.18
2023-09-13T18:41:30.733Z,3.15
2023-09-13T18:44:32.703Z,3.03
2023-09-13T18:47:34.797Z,2.90
2023-09-13T18:50:36.814Z,2.90
2023-09-13T18:53:40.635Z,3.05
2023-09-13T18:56:42.572Z,3.60
2023-09-13T18:59:44.665Z,2.87
2023-09-13T19:02:50.341Z,3.22
2023-09-13T19:05:58.444Z,3.38
2023-09-13T19:09:00.364Z,3.50
2023-09-13T19:12:03.439Z,3.50
2023-09-13T19:15:05.849Z,4.00
2023-09-13T19:18:08.041Z,3.22
2023-09-13T19:21:13.401Z,3.60
2023-09-13T19:24:15.350Z,3.15
2023-09-13T19:27:17.231Z,3.03
2023-09-13T19:30:19.087Z,3.30
2023-09-13T19:33:25.146Z,2.90
2023-09-13T19:36:27.461Z,2.83
2023-09-13T19:39:29.343Z,3.42
2023-09-13T19:42:34.272Z,3.25
2023-09-13T19:45:36.312Z,2.60
2023-09-13T19:48:38.411Z,3.63
2023-09-13T19:51:40.337Z,3.50
2023-09-13T19:54:42.263Z,3.13
2023-09-13T19:57:44.187Z,3.33
2023-09-13T20:00:46.414Z,2.93
2023-09-13T20:03:48.524Z,3.00
2023-09-13T20:11:00.858Z,3.53
2023-09-13T20:14:03.000Z,2.90
2023-09-13T20:17:07.561Z,3.47
2023-09-13T20:20:10.112Z,2.83
2023-09-13T20:23:11.978Z,4.43
2023-09-13T20:26:13.865Z,2.80
2023-09-13T20:29:15.849Z,3.08
2023-09-13T20:32:17.722Z,3.45
2023-09-13T20:35:19.655Z,3.20
2023-09-13T20:38:21.929Z,3.28
2023-09-13T20:41:23.932Z,3.65
2023-09-13T20:44:26.001Z,3.60
2023-09-13T20:47:28.144Z,3.10
2023-09-13T20:50:30.270Z,3.77
2023-09-13T20:53:34.511Z,3.25
2023-09-13T20:56:36.483Z,3.25
2023-09-13T20:59:39.670Z,3.90
2023-09-13T21:02:41.736Z,3.70
2023-09-13T21:09:42.553Z,3.30
2023-09-13T21:12:44.564Z,3.33
2023-09-13T21:15:46.590Z,3.10
2023-09-13T21:18:49.061Z,3.28
2023-09-13T21:21:52.387Z,3.60
2023-09-13T21:24:55.003Z,3.45
2023-09-13T21:27:57.002Z,3.33
2023-09-13T21:30:59.139Z,3.80
2023-09-13T21:34:01.244Z,3.25
2023-09-13T21:37:03.357Z,2.93
2023-09-13T21:40:06.094Z,3.30
2023-09-13T21:43:08.074Z,2.85
2023-09-13T21:46:10.142Z,2.70
2023-09-13T21:49:12.249Z,2.72
2023-09-13T21:52:15.122Z,3.93
2023-09-13T21:55:16.983Z,3.00
2023-09-13T21:58:20.716Z,3.63
2023-09-13T22:01:22.765Z,3.35
2023-09-13T22:04:25.226Z,3.92
2023-09-13T22:07:27.241Z,3.20
2023-09-13T22:10:29.259Z,3.45
2023-09-13T22:13:31.532Z,3.80
2023-09-13T22:16:33.570Z,3.10
2023-09-13T22:19:35.546Z,3.33
2023-09-13T22:22:37.536Z,3.20
2023-09-13T22:25:39.499Z,2.85
2023-09-13T22:28:41.841Z,3.78
2023-09-13T22:31:43.870Z,3.22
2023-09-13T22:34:47.283Z,3.22
2023-09-13T22:37:49.365Z,2.90
2023-09-13T22:40:51.851Z,2.75
2023-09-13T22:43:53.891Z,3.00
2023-09-13T22:46:56.754Z,3.50
2023-09-13T22:49:58.800Z,2.97
2023-09-13T22:53:02.390Z,3.27
2023-09-13T22:56:04.552Z,3.25
2023-09-13T22:59:06.658Z,3.60
2023-09-13T23:02:08.627Z,2.88
2023-09-13T23:05:11.405Z,2.85
2023-09-13T23:08:14.350Z,2.50
2023-09-13T23:11:16.792Z,3.22
2023-09-13T23:14:18.720Z,2.63
2023-09-13T23:17:21.581Z,3.35
2023-09-13T23:20:23.405Z,3.35
2023-09-13T23:23:26.398Z,2.70
2023-09-13T23:26:30.094Z,2.95
2023-09-13T23:29:34.048Z,2.53
2023-09-13T23:32:38.893Z,3.30
2023-09-13T23:35:44.168Z,3.70
2023-09-13T23:38:46.327Z,3.87
2023-09-13T23:41:48.508Z,2.75
2023-09-13T23:44:51.018Z,3.80
2023-09-13T23:47:52.980Z,3.10
2023-09-13T23:50:54.839Z,2.80
2023-09-13T23:53:56.766Z,3.30
2023-09-13T23:56:58.710Z,2.83
